sensor_id;sensor_type;location;lat;lon;timestamp;temperature;humidity
5828;DHT22;42583;50.240;8.444;2023-02-01T00:05:20;3.00;99.90
5828;DHT22;42583;50.240;8.444;2023-02-01T00:20:21;3.10;99.90
5828;DHT22;42583;50.240;8.444;2023-02-01T00:35:21;3.10;99.90
5828;DHT22;42583;50.240;8.444;2023-02-01T00:50:22;3.20;99.90
5828;DHT22;42583;50.240;8.444;2023-02-01T01:05:23;3.20;99.90
5828;DHT22;42583;50.240;8.444;2023-02-01T01:20:24;3.20;99.90
5828;DHT22;42583;50.240;8.444;2023-02-01T01:35:24;3.20;99.90
5828;DHT22;42583;50.240;8.444;2023-02-01T01:50:30;3.20;99.90
5828;DHT22;42583;50.240;8.444;2023-02-01T02:05:31;3.20;99.90
5828;DHT22;42583;50.240;8.444;2023-02-01T02:36:23;3.30;99.90
5828;DHT22;42583;50.240;8.444;2023-02-01T02:51:46;3.30;99.90
5828;DHT22;42583;50.240;8.444;2023-02-01T03:07:45;3.30;99.90
5828;DHT22;42583;50.240;8.444;2023-02-01T03:22:37;3.30;99.90
5828;DHT22;42583;50.240;8.444;2023-02-01T03:37:38;3.20;99.90
5828;DHT22;42583;50.240;8.444;2023-02-01T03:52:51;3.20;99.90
5828;DHT22;42583;50.240;8.444;2023-02-01T04:07:52;3.20;99.90
5828;DHT22;42583;50.240;8.444;2023-02-01T04:22:54;3.10;99.90
5828;DHT22;42583;50.240;8.444;2023-02-01T04:37:55;3.10;99.90
5828;DHT22;42583;50.240;8.444;2023-02-01T04:52:55;3.10;99.90
5828;DHT22;42583;50.240;8.444;2023-02-01T05:07:56;3.10;99.90
5828;DHT22;42583;50.240;8.444;2023-02-01T05:22:56;3.10;99.90
5828;DHT22;42583;50.240;8.444;2023-02-01T05:37:57;3.10;99.90
5828;DHT22;42583;50.240;8.444;2023-02-01T05:52:57;3.10;99.90
5828;DHT22;42583;50.240;8.444;2023-02-01T06:07:58;3.10;99.90
5828;DHT22;42583;50.240;8.444;2023-02-01T06:22:59;3.00;99.90
5828;DHT22;42583;50.240;8.444;2023-02-01T06:37:59;2.90;99.90
5828;DHT22;42583;50.240;8.444;2023-02-01T06:53:00;2.90;99.90
5828;DHT22;42583;50.240;8.444;2023-02-01T07:08:01;2.80;99.90
5828;DHT22;42583;50.240;8.444;2023-02-01T07:23:01;2.70;99.90
5828;DHT22;42583;50.240;8.444;2023-02-01T07:38:02;2.70;99.90
5828;DHT22;42583;50.240;8.444;2023-02-01T07:53:02;2.80;99.90
5828;DHT22;42583;50.240;8.444;2023-02-01T08:08:03;2.80;99.90
5828;DHT22;42583;50.240;8.444;2023-02-01T08:23:07;2.80;99.90
5828;DHT22;42583;50.240;8.444;2023-02-01T08:38:08;2.80;99.90
5828;DHT22;42583;50.240;8.444;2023-02-01T08:53:09;2.90;99.90
5828;DHT22;42583;50.240;8.444;2023-02-01T09:08:10;2.90;99.90
5828;DHT22;42583;50.240;8.444;2023-02-01T09:23:12;2.90;99.90
5828;DHT22;42583;50.240;8.444;2023-02-01T09:38:13;2.90;99.90
5828;DHT22;42583;50.240;8.444;2023-02-01T10:39:05;3.20;99.90
5828;DHT22;42583;50.240;8.444;2023-02-01T10:54:22;3.20;99.90
5828;DHT22;42583;50.240;8.444;2023-02-01T11:09:31;3.20;99.90
5828;DHT22;42583;50.240;8.444;2023-02-01T11:24:35;3.20;99.90
5828;DHT22;42583;50.240;8.444;2023-02-01T11:39:39;3.30;99.90
5828;DHT22;42583;50.240;8.444;2023-02-01T12:56:01;3.70;99.90
5828;DHT22;42583;50.240;8.444;2023-02-01T13:11:15;3.70;99.90
5828;DHT22;42583;50.240;8.444;2023-02-01T13:26:18;3.60;99.90
5828;DHT22;42583;50.240;8.444;2023-02-01T13:41:28;3.60;99.90
5828;DHT22;42583;50.240;8.444;2023-02-01T13:56:43;3.70;99.90
5828;DHT22;42583;50.240;8.444;2023-02-01T14:11:52;3.70;99.90
5828;DHT22;42583;50.240;8.444;2023-02-01T14:26:55;3.80;99.90
5828;DHT22;42583;50.240;8.444;2023-02-01T14:42:00;3.80;99.90
5828;DHT22;42583;50.240;8.444;2023-02-01T14:57:02;4.00;99.90
5828;DHT22;42583;50.240;8.444;2023-02-01T15:27:11;3.90;99.90
5828;DHT22;42583;50.240;8.444;2023-02-01T15:42:15;3.80;99.90
5828;DHT22;42583;50.240;8.444;2023-02-01T15:57:27;3.70;99.90
5828;DHT22;42583;50.240;8.444;2023-02-01T16:12:46;3.60;99.90
5828;DHT22;42583;50.240;8.444;2023-02-01T16:27:47;3.50;99.90
5828;DHT22;42583;50.240;8.444;2023-02-01T16:42:50;3.50;99.90
5828;DHT22;42583;50.240;8.444;2023-02-01T16:57:51;3.60;99.90
5828;DHT22;42583;50.240;8.444;2023-02-01T17:12:52;3.70;99.90
5828;DHT22;42583;50.240;8.444;2023-02-01T17:27:53;3.70;99.90
5828;DHT22;42583;50.240;8.444;2023-02-01T17:42:54;3.60;99.90
5828;DHT22;42583;50.240;8.444;2023-02-01T17:57:57;3.50;99.90
5828;DHT22;42583;50.240;8.444;2023-02-01T18:12:57;3.40;99.90
5828;DHT22;42583;50.240;8.444;2023-02-01T18:27:58;3.20;99.90
5828;DHT22;42583;50.240;8.444;2023-02-01T18:42:59;3.10;99.90
5828;DHT22;42583;50.240;8.444;2023-02-01T18:58:02;3.10;99.90
5828;DHT22;42583;50.240;8.444;2023-02-01T19:13:03;3.00;99.90
5828;DHT22;42583;50.240;8.444;2023-02-01T19:28:04;3.10;99.90
5828;DHT22;42583;50.240;8.444;2023-02-01T19:43:05;3.10;99.90
5828;DHT22;42583;50.240;8.444;2023-02-01T19:58:05;3.20;99.90
5828;DHT22;42583;50.240;8.444;2023-02-01T20:13:06;3.30;99.90
5828;DHT22;42583;50.240;8.444;2023-02-01T20:28:06;3.30;99.90
5828;DHT22;42583;50.240;8.444;2023-02-01T20:43:07;3.40;99.90
5828;DHT22;42583;50.240;8.444;2023-02-01T20:58:08;3.40;99.90
5828;DHT22;42583;50.240;8.444;2023-02-01T21:13:08;3.40;99.90
5828;DHT22;42583;50.240;8.444;2023-02-01T21:28:10;3.50;99.90
5828;DHT22;42583;50.240;8.444;2023-02-01T21:43:10;3.40;99.90
5828;DHT22;42583;50.240;8.444;2023-02-01T21:58:11;3.50;99.90
5828;DHT22;42583;50.240;8.444;2023-02-01T22:13:12;3.50;99.90
5828;DHT22;42583;50.240;8.444;2023-02-01T22:28:12;3.50;99.90
5828;DHT22;42583;50.240;8.444;2023-02-01T22:43:12;3.50;99.90
5828;DHT22;42583;50.240;8.444;2023-02-01T22:58:13;3.50;99.90
5828;DHT22;42583;50.240;8.444;2023-02-01T23:13:13;3.50;99.90
5828;DHT22;42583;50.240;8.444;2023-02-01T23:28:14;3.60;99.90
5828;DHT22;42583;50.240;8.444;2023-02-01T23:43:15;3.60;99.90
5828;DHT22;42583;50.240;8.444;2023-02-01T23:58:34;3.60;99.90
